sensor_id;sensor_type;location;lat;lon;timestamp;temperature;humidity
17619;DHT22;8928;51.678;6.074;2023-05-16T00:01:55;8.90;99.90
17619;DHT22;8928;51.678;6.074;2023-05-16T00:04:42;8.90;99.90
17619;DHT22;8928;51.678;6.074;2023-05-16T00:07:31;8.80;99.90
17619;DHT22;8928;51.678;6.074;2023-05-16T00:10:20;8.80;99.90
17619;DHT22;8928;51.678;6.074;2023-05-16T00:13:07;8.80;99.90
17619;DHT22;8928;51.678;6.074;2023-05-16T00:15:55;8.70;99.90
17619;DHT22;8928;51.678;6.074;2023-05-16T00:18:42;8.70;99.90
17619;DHT22;8928;51.678;6.074;2023-05-16T00:21:30;8.60;99.90
17619;DHT22;8928;51.678;6.074;2023-05-16T00:24:17;8.60;99.90
17619;DHT22;8928;51.678;6.074;2023-05-16T00:27:06;8.50;99.90
17619;DHT22;8928;51.678;6.074;2023-05-16T00:29:53;8.50;99.90
17619;DHT22;8928;51.678;6.074;2023-05-16T00:32:40;8.50;99.90
17619;DHT22;8928;51.678;6.074;2023-05-16T00:35:27;8.50;99.90
17619;DHT22;8928;51.678;6.074;2023-05-16T00:38:14;8.50;99.90
17619;DHT22;8928;51.678;6.074;2023-05-16T00:41:01;8.50;99.90
17619;DHT22;8928;51.678;6.074;2023-05-16T00:43:50;8.50;99.90
17619;DHT22;8928;51.678;6.074;2023-05-16T00:46:37;8.50;99.90
17619;DHT22;8928;51.678;6.074;2023-05-16T00:49:24;8.50;99.90
17619;DHT22;8928;51.678;6.074;2023-05-16T00:52:11;8.50;99.90
17619;DHT22;8928;51.678;6.074;2023-05-16T00:54:59;8.50;99.90
17619;DHT22;8928;51.678;6.074;2023-05-16T00:57:46;8.50;99.90
17619;DHT22;8928;51.678;6.074;2023-05-16T01:00:34;8.50;99.90
17619;DHT22;8928;51.678;6.074;2023-05-16T01:03:22;8.40;99.90
17619;DHT22;8928;51.678;6.074;2023-05-16T01:06:09;8.40;99.90
17619;DHT22;8928;51.678;6.074;2023-05-16T01:08:57;8.40;99.90
17619;DHT22;8928;51.678;6.074;2023-05-16T01:11:51;8.40;99.90
17619;DHT22;8928;51.678;6.074;2023-05-16T01:14:47;8.40;99.90
17619;DHT22;8928;51.678;6.074;2023-05-16T01:17:49;8.40;99.90
17619;DHT22;8928;51.678;6.074;2023-05-16T01:20:42;8.40;99.90
17619;DHT22;8928;51.678;6.074;2023-05-16T01:23:40;8.40;99.90
17619;DHT22;8928;51.678;6.074;2023-05-16T01:26:32;8.40;99.90
17619;DHT22;8928;51.678;6.074;2023-05-16T01:29:20;8.40;99.90
17619;DHT22;8928;51.678;6.074;2023-05-16T01:32:07;8.30;99.90
17619;DHT22;8928;51.678;6.074;2023-05-16T01:34:54;8.30;99.90
17619;DHT22;8928;51.678;6.074;2023-05-16T01:37:44;8.20;99.90
17619;DHT22;8928;51.678;6.074;2023-05-16T01:40:41;8.10;99.90
17619;DHT22;8928;51.678;6.074;2023-05-16T01:43:36;8.10;99.90
17619;DHT22;8928;51.678;6.074;2023-05-16T01:46:30;8.00;99.90
17619;DHT22;8928;51.678;6.074;2023-05-16T01:49:24;8.00;99.90
17619;DHT22;8928;51.678;6.074;2023-05-16T01:52:15;7.90;99.90
17619;DHT22;8928;51.678;6.074;2023-05-16T01:55:09;7.80;99.90
17619;DHT22;8928;51.678;6.074;2023-05-16T01:57:58;7.80;99.90
17619;DHT22;8928;51.678;6.074;2023-05-16T02:00:46;7.70;99.90
17619;DHT22;8928;51.678;6.074;2023-05-16T02:03:33;7.70;99.90
17619;DHT22;8928;51.678;6.074;2023-05-16T02:06:21;7.60;99.90
17619;DHT22;8928;51.678;6.074;2023-05-16T02:09:08;7.60;99.90
17619;DHT22;8928;51.678;6.074;2023-05-16T02:11:55;7.50;99.90
17619;DHT22;8928;51.678;6.074;2023-05-16T02:14:42;7.40;99.90
17619;DHT22;8928;51.678;6.074;2023-05-16T02:17:31;7.40;99.90
17619;DHT22;8928;51.678;6.074;2023-05-16T02:20:18;7.30;99.90
17619;DHT22;8928;51.678;6.074;2023-05-16T02:23:05;7.30;99.90
17619;DHT22;8928;51.678;6.074;2023-05-16T02:25:52;7.20;99.90
17619;DHT22;8928;51.678;6.074;2023-05-16T02:28:39;7.10;99.90
17619;DHT22;8928;51.678;6.074;2023-05-16T02:31:27;7.10;99.90
17619;DHT22;8928;51.678;6.074;2023-05-16T02:34:16;7.00;99.90
17619;DHT22;8928;51.678;6.074;2023-05-16T02:37:03;6.90;99.90
17619;DHT22;8928;51.678;6.074;2023-05-16T02:39:50;6.80;99.90
17619;DHT22;8928;51.678;6.074;2023-05-16T02:42:37;6.90;99.90
17619;DHT22;8928;51.678;6.074;2023-05-16T02:45:24;6.80;99.90
17619;DHT22;8928;51.678;6.074;2023-05-16T02:48:11;6.70;99.90
17619;DHT22;8928;51.678;6.074;2023-05-16T02:51:00;6.60;99.90
17619;DHT22;8928;51.678;6.074;2023-05-16T02:53:47;6.50;99.90
17619;DHT22;8928;51.678;6.074;2023-05-16T02:56:35;6.40;99.90
17619;DHT22;8928;51.678;6.074;2023-05-16T02:59:22;6.30;99.90
17619;DHT22;8928;51.678;6.074;2023-05-16T03:02:09;6.20;99.90
17619;DHT22;8928;51.678;6.074;2023-05-16T03:04:56;6.20;99.90
17619;DHT22;8928;51.678;6.074;2023-05-16T03:07:44;6.20;99.90
17619;DHT22;8928;51.678;6.074;2023-05-16T03:10:31;6.20;99.90
17619;DHT22;8928;51.678;6.074;2023-05-16T03:13:19;6.20;99.90
17619;DHT22;8928;51.678;6.074;2023-05-16T03:16:06;6.10;99.90
17619;DHT22;8928;51.678;6.074;2023-05-16T03:18:53;6.10;99.90
17619;DHT22;8928;51.678;6.074;2023-05-16T03:21:40;6.20;99.90
17619;DHT22;8928;51.678;6.074;2023-05-16T03:24:28;6.20;99.90
17619;DHT22;8928;51.678;6.074;2023-05-16T03:27:16;6.10;99.90
17619;DHT22;8928;51.678;6.074;2023-05-16T03:30:03;6.10;99.90
17619;DHT22;8928;51.678;6.074;2023-05-16T03:32:51;6.00;99.90
17619;DHT22;8928;51.678;6.074;2023-05-16T03:35:38;6.00;99.90
17619;DHT22;8928;51.678;6.074;2023-05-16T03:38:25;6.00;99.90
17619;DHT22;8928;51.678;6.074;2023-05-16T03:41:14;6.10;99.90
17619;DHT22;8928;51.678;6.074;2023-05-16T03:44:01;6.20;99.90
17619;DHT22;8928;51.678;6.074;2023-05-16T03:46:48;6.30;99.90
17619;DHT22;8928;51.678;6.074;2023-05-16T03:49:37;6.40;99.90
17619;DHT22;8928;51.678;6.074;2023-05-16T03:52:24;6.60;99.90
17619;DHT22;8928;51.678;6.074;2023-05-16T03:55:11;6.70;99.90
17619;DHT22;8928;51.678;6.074;2023-05-16T03:58:01;6.80;99.90
17619;DHT22;8928;51.678;6.074;2023-05-16T04:00:48;6.90;99.90
17619;DHT22;8928;51.678;6.074;2023-05-16T04:03:35;6.90;99.90
17619;DHT22;8928;51.678;6.074;2023-05-16T04:06:23;7.10;99.90
17619;DHT22;8928;51.678;6.074;2023-05-16T04:09:10;7.20;99.90
17619;DHT22;8928;51.678;6.074;2023-05-16T04:11:57;7.30;99.90
17619;DHT22;8928;51.678;6.074;2023-05-16T04:14:48;7.40;99.90
17619;DHT22;8928;51.678;6.074;2023-05-16T04:17:35;7.50;99.90
17619;DHT22;8928;51.678;6.074;2023-05-16T04:20:22;7.60;99.90
17619;DHT22;8928;51.678;6.074;2023-05-16T04:23:09;7.60;99.90
17619;DHT22;8928;51.678;6.074;2023-05-16T04:25:56;7.70;99.90
17619;DHT22;8928;51.678;6.074;2023-05-16T04:28:44;7.70;99.90
17619;DHT22;8928;51.678;6.074;2023-05-16T04:31:32;7.70;99.90
17619;DHT22;8928;51.678;6.074;2023-05-16T04:34:19;7.80;99.90
17619;DHT22;8928;51.678;6.074;2023-05-16T04:37:07;7.80;99.90
17619;DHT22;8928;51.678;6.074;2023-05-16T04:39:55;7.90;99.90
17619;DHT22;8928;51.678;6.074;2023-05-16T04:42:42;8.00;99.90
17619;DHT22;8928;51.678;6.074;2023-05-16T04:45:29;8.00;99.90
17619;DHT22;8928;51.678;6.074;2023-05-16T04:48:17;8.00;99.90
17619;DHT22;8928;51.678;6.074;2023-05-16T04:51:04;8.10;99.90
17619;DHT22;8928;51.678;6.074;2023-05-16T04:53:51;8.20;99.90
17619;DHT22;8928;51.678;6.074;2023-05-16T04:56:38;8.40;99.90
17619;DHT22;8928;51.678;6.074;2023-05-16T04:59:25;8.50;99.90
17619;DHT22;8928;51.678;6.074;2023-05-16T05:02:12;8.60;99.90
17619;DHT22;8928;51.678;6.074;2023-05-16T05:05:01;8.70;99.90
17619;DHT22;8928;51.678;6.074;2023-05-16T05:07:48;8.70;99.90
17619;DHT22;8928;51.678;6.074;2023-05-16T05:10:35;8.70;99.90
17619;DHT22;8928;51.678;6.074;2023-05-16T05:13:22;8.80;99.90
17619;DHT22;8928;51.678;6.074;2023-05-16T05:16:09;8.90;99.90
17619;DHT22;8928;51.678;6.074;2023-05-16T05:18:56;9.00;99.90
17619;DHT22;8928;51.678;6.074;2023-05-16T05:21:44;8.90;99.90
17619;DHT22;8928;51.678;6.074;2023-05-16T05:24:32;8.90;99.90
17619;DHT22;8928;51.678;6.074;2023-05-16T05:27:19;8.90;99.90
17619;DHT22;8928;51.678;6.074;2023-05-16T05:30:07;8.90;99.90
17619;DHT22;8928;51.678;6.074;2023-05-16T05:32:54;9.00;99.90
17619;DHT22;8928;51.678;6.074;2023-05-16T05:35:41;9.10;99.90
17619;DHT22;8928;51.678;6.074;2023-05-16T05:38:29;9.20;99.90
17619;DHT22;8928;51.678;6.074;2023-05-16T05:41:16;9.30;99.90
17619;DHT22;8928;51.678;6.074;2023-05-16T05:44:04;9.30;99.90
17619;DHT22;8928;51.678;6.074;2023-05-16T05:46:51;9.30;99.90
17619;DHT22;8928;51.678;6.074;2023-05-16T05:49:38;9.30;99.90
17619;DHT22;8928;51.678;6.074;2023-05-16T05:52:25;9.40;99.90
17619;DHT22;8928;51.678;6.074;2023-05-16T05:55:14;9.40;99.90
17619;DHT22;8928;51.678;6.074;2023-05-16T05:58:01;9.40;99.90
17619;DHT22;8928;51.678;6.074;2023-05-16T06:00:48;9.40;99.90
17619;DHT22;8928;51.678;6.074;2023-05-16T06:03:35;9.40;99.90
17619;DHT22;8928;51.678;6.074;2023-05-16T06:06:22;9.30;99.90
17619;DHT22;8928;51.678;6.074;2023-05-16T06:09:09;9.40;99.90
17619;DHT22;8928;51.678;6.074;2023-05-16T06:11:58;9.40;99.90
17619;DHT22;8928;51.678;6.074;2023-05-16T06:14:46;9.40;99.90
17619;DHT22;8928;51.678;6.074;2023-05-16T06:17:33;9.60;99.90
17619;DHT22;8928;51.678;6.074;2023-05-16T06:20:20;9.90;99.90
17619;DHT22;8928;51.678;6.074;2023-05-16T06:23:07;10.00;99.90
17619;DHT22;8928;51.678;6.074;2023-05-16T06:25:54;10.00;99.90
17619;DHT22;8928;51.678;6.074;2023-05-16T06:28:42;10.00;99.90
17619;DHT22;8928;51.678;6.074;2023-05-16T06:31:30;10.20;99.90
17619;DHT22;8928;51.678;6.074;2023-05-16T06:34:17;10.40;99.90
17619;DHT22;8928;51.678;6.074;2023-05-16T06:37:05;10.80;99.90
17619;DHT22;8928;51.678;6.074;2023-05-16T06:39:52;11.10;99.90
17619;DHT22;8928;51.678;6.074;2023-05-16T06:42:39;11.20;99.90
17619;DHT22;8928;51.678;6.074;2023-05-16T06:45:28;11.20;99.90
17619;DHT22;8928;51.678;6.074;2023-05-16T06:48:17;11.10;99.90
17619;DHT22;8928;51.678;6.074;2023-05-16T06:51:04;11.30;99.90
17619;DHT22;8928;51.678;6.074;2023-05-16T06:53:51;11.30;99.90
17619;DHT22;8928;51.678;6.074;2023-05-16T06:56:38;11.30;99.90
17619;DHT22;8928;51.678;6.074;2023-05-16T06:59:25;11.20;99.90
17619;DHT22;8928;51.678;6.074;2023-05-16T07:02:14;11.10;99.90
17619;DHT22;8928;51.678;6.074;2023-05-16T07:05:01;11.10;99.90
17619;DHT22;8928;51.678;6.074;2023-05-16T07:07:48;11.10;99.90
17619;DHT22;8928;51.678;6.074;2023-05-16T07:10:35;11.30;99.90
17619;DHT22;8928;51.678;6.074;2023-05-16T07:13:22;11.40;99.90
17619;DHT22;8928;51.678;6.074;2023-05-16T07:16:09;11.50;99.90
17619;DHT22;8928;51.678;6.074;2023-05-16T07:18:57;11.60;99.90
17619;DHT22;8928;51.678;6.074;2023-05-16T07:21:44;11.90;99.90
17619;DHT22;8928;51.678;6.074;2023-05-16T07:24:32;12.20;99.90
17619;DHT22;8928;51.678;6.074;2023-05-16T07:27:19;12.50;99.90
17619;DHT22;8928;51.678;6.074;2023-05-16T07:30:07;13.00;99.90
17619;DHT22;8928;51.678;6.074;2023-05-16T07:32:55;13.30;99.90
17619;DHT22;8928;51.678;6.074;2023-05-16T07:35:43;13.50;99.90
17619;DHT22;8928;51.678;6.074;2023-05-16T07:38:31;13.40;99.90
17619;DHT22;8928;51.678;6.074;2023-05-16T07:41:18;13.50;99.90
17619;DHT22;8928;51.678;6.074;2023-05-16T07:44:06;13.50;99.90
17619;DHT22;8928;51.678;6.074;2023-05-16T07:46:53;13.70;99.90
17619;DHT22;8928;51.678;6.074;2023-05-16T07:49:40;13.80;99.90
17619;DHT22;8928;51.678;6.074;2023-05-16T07:52:28;14.10;99.90
17619;DHT22;8928;51.678;6.074;2023-05-16T07:55:15;14.50;99.90
17619;DHT22;8928;51.678;6.074;2023-05-16T07:58:03;14.20;99.90
17619;DHT22;8928;51.678;6.074;2023-05-16T08:00:50;13.80;99.90
17619;DHT22;8928;51.678;6.074;2023-05-16T08:03:37;13.60;99.90
17619;DHT22;8928;51.678;6.074;2023-05-16T08:06:24;13.90;99.90
17619;DHT22;8928;51.678;6.074;2023-05-16T08:09:12;14.20;99.90
17619;DHT22;8928;51.678;6.074;2023-05-16T08:11:59;14.40;99.90
17619;DHT22;8928;51.678;6.074;2023-05-16T08:14:48;14.80;99.90
17619;DHT22;8928;51.678;6.074;2023-05-16T08:17:35;14.70;99.90
17619;DHT22;8928;51.678;6.074;2023-05-16T08:20:23;14.40;99.90
17619;DHT22;8928;51.678;6.074;2023-05-16T08:23:10;14.10;99.90
17619;DHT22;8928;51.678;6.074;2023-05-16T08:25:58;13.60;99.90
17619;DHT22;8928;51.678;6.074;2023-05-16T08:28:46;13.10;99.90
17619;DHT22;8928;51.678;6.074;2023-05-16T08:31:33;12.60;99.90
17619;DHT22;8928;51.678;6.074;2023-05-16T08:34:20;12.40;99.90
17619;DHT22;8928;51.678;6.074;2023-05-16T08:37:07;12.60;99.90
17619;DHT22;8928;51.678;6.074;2023-05-16T08:39:57;13.10;99.90
17619;DHT22;8928;51.678;6.074;2023-05-16T08:42:45;13.60;99.90
17619;DHT22;8928;51.678;6.074;2023-05-16T08:45:32;14.20;99.90
17619;DHT22;8928;51.678;6.074;2023-05-16T08:48:22;14.90;99.90
17619;DHT22;8928;51.678;6.074;2023-05-16T08:51:10;15.40;99.90
17619;DHT22;8928;51.678;6.074;2023-05-16T08:54:01;15.20;99.90
17619;DHT22;8928;51.678;6.074;2023-05-16T08:56:49;15.10;99.90
17619;DHT22;8928;51.678;6.074;2023-05-16T08:59:37;14.80;99.90
17619;DHT22;8928;51.678;6.074;2023-05-16T09:02:26;14.50;99.90
17619;DHT22;8928;51.678;6.074;2023-05-16T09:05:15;14.30;99.90
17619;DHT22;8928;51.678;6.074;2023-05-16T09:08:03;14.50;99.90
17619;DHT22;8928;51.678;6.074;2023-05-16T09:10:51;14.70;99.90
17619;DHT22;8928;51.678;6.074;2023-05-16T09:13:38;15.20;99.90
17619;DHT22;8928;51.678;6.074;2023-05-16T09:16:27;15.40;99.90
17619;DHT22;8928;51.678;6.074;2023-05-16T09:19:14;15.60;99.90
17619;DHT22;8928;51.678;6.074;2023-05-16T09:22:01;15.80;99.90
17619;DHT22;8928;51.678;6.074;2023-05-16T09:24:49;16.30;99.90
17619;DHT22;8928;51.678;6.074;2023-05-16T09:27:36;16.70;99.90
17619;DHT22;8928;51.678;6.074;2023-05-16T09:30:27;16.40;99.90
17619;DHT22;8928;51.678;6.074;2023-05-16T09:33:15;15.70;99.90
17619;DHT22;8928;51.678;6.074;2023-05-16T09:36:03;15.00;99.90
17619;DHT22;8928;51.678;6.074;2023-05-16T09:38:51;14.60;99.90
17619;DHT22;8928;51.678;6.074;2023-05-16T09:41:38;14.30;99.90
17619;DHT22;8928;51.678;6.074;2023-05-16T09:44:25;14.20;99.90
17619;DHT22;8928;51.678;6.074;2023-05-16T09:47:13;14.80;99.90
17619;DHT22;8928;51.678;6.074;2023-05-16T09:50:02;15.50;99.90
17619;DHT22;8928;51.678;6.074;2023-05-16T09:52:50;16.20;99.90
17619;DHT22;8928;51.678;6.074;2023-05-16T09:55:37;16.30;99.90
17619;DHT22;8928;51.678;6.074;2023-05-16T09:58:27;16.70;99.90
17619;DHT22;8928;51.678;6.074;2023-05-16T10:01:15;17.20;99.90
17619;DHT22;8928;51.678;6.074;2023-05-16T10:04:02;17.00;99.90
17619;DHT22;8928;51.678;6.074;2023-05-16T10:06:51;16.60;99.90
17619;DHT22;8928;51.678;6.074;2023-05-16T10:09:39;15.80;99.90
17619;DHT22;8928;51.678;6.074;2023-05-16T10:12:29;15.80;99.90
17619;DHT22;8928;51.678;6.074;2023-05-16T10:15:18;16.00;99.90
17619;DHT22;8928;51.678;6.074;2023-05-16T10:18:07;16.50;99.90
17619;DHT22;8928;51.678;6.074;2023-05-16T10:21:04;16.30;99.90
17619;DHT22;8928;51.678;6.074;2023-05-16T10:23:55;16.20;99.90
17619;DHT22;8928;51.678;6.074;2023-05-16T10:26:44;16.60;99.90
17619;DHT22;8928;51.678;6.074;2023-05-16T10:29:31;17.10;99.90
17619;DHT22;8928;51.678;6.074;2023-05-16T10:32:20;17.30;99.90
17619;DHT22;8928;51.678;6.074;2023-05-16T10:35:09;17.20;99.90
17619;DHT22;8928;51.678;6.074;2023-05-16T10:37:57;16.50;99.90
17619;DHT22;8928;51.678;6.074;2023-05-16T10:40:46;16.30;99.90
17619;DHT22;8928;51.678;6.074;2023-05-16T10:43:34;15.90;99.90
17619;DHT22;8928;51.678;6.074;2023-05-16T10:46:22;15.30;99.90
17619;DHT22;8928;51.678;6.074;2023-05-16T10:49:27;15.20;99.90
17619;DHT22;8928;51.678;6.074;2023-05-16T10:52:14;16.10;99.90
17619;DHT22;8928;51.678;6.074;2023-05-16T10:55:03;17.20;99.90
17619;DHT22;8928;51.678;6.074;2023-05-16T10:57:51;17.90;99.90
17619;DHT22;8928;51.678;6.074;2023-05-16T11:00:39;18.50;99.90
17619;DHT22;8928;51.678;6.074;2023-05-16T11:03:27;19.10;99.90
17619;DHT22;8928;51.678;6.074;2023-05-16T11:06:20;20.00;99.90
17619;DHT22;8928;51.678;6.074;2023-05-16T11:09:17;20.80;99.90
17619;DHT22;8928;51.678;6.074;2023-05-16T11:12:08;21.20;99.90
17619;DHT22;8928;51.678;6.074;2023-05-16T11:14:58;19.50;99.90
17619;DHT22;8928;51.678;6.074;2023-05-16T11:17:45;18.30;99.90
17619;DHT22;8928;51.678;6.074;2023-05-16T11:20:33;17.10;99.90
17619;DHT22;8928;51.678;6.074;2023-05-16T11:23:24;16.60;99.90
17619;DHT22;8928;51.678;6.074;2023-05-16T11:26:12;16.30;99.90
17619;DHT22;8928;51.678;6.074;2023-05-16T11:29:00;16.00;99.90
17619;DHT22;8928;51.678;6.074;2023-05-16T11:31:51;16.10;99.90
17619;DHT22;8928;51.678;6.074;2023-05-16T11:34:39;16.90;99.90
17619;DHT22;8928;51.678;6.074;2023-05-16T11:37:26;18.10;99.90
17619;DHT22;8928;51.678;6.074;2023-05-16T11:40:14;19.30;99.90
17619;DHT22;8928;51.678;6.074;2023-05-16T11:43:01;20.10;99.90
17619;DHT22;8928;51.678;6.074;2023-05-16T11:45:53;20.00;99.90
17619;DHT22;8928;51.678;6.074;2023-05-16T11:48:42;19.00;99.90
17619;DHT22;8928;51.678;6.074;2023-05-16T11:51:31;18.10;99.90
17619;DHT22;8928;51.678;6.074;2023-05-16T11:54:20;17.30;99.90
17619;DHT22;8928;51.678;6.074;2023-05-16T11:57:08;17.30;99.90
17619;DHT22;8928;51.678;6.074;2023-05-16T11:59:55;17.50;99.90
17619;DHT22;8928;51.678;6.074;2023-05-16T12:02:43;17.70;99.90
17619;DHT22;8928;51.678;6.074;2023-05-16T12:05:32;18.60;99.90
17619;DHT22;8928;51.678;6.074;2023-05-16T12:08:19;19.30;99.90
17619;DHT22;8928;51.678;6.074;2023-05-16T12:11:09;20.40;99.90
17619;DHT22;8928;51.678;6.074;2023-05-16T12:13:56;20.70;99.90
17619;DHT22;8928;51.678;6.074;2023-05-16T12:16:43;19.90;99.90
17619;DHT22;8928;51.678;6.074;2023-05-16T12:19:31;19.90;99.90
17619;DHT22;8928;51.678;6.074;2023-05-16T12:22:20;20.60;99.90
17619;DHT22;8928;51.678;6.074;2023-05-16T12:25:21;20.90;99.90
17619;DHT22;8928;51.678;6.074;2023-05-16T12:28:11;20.20;99.90
17619;DHT22;8928;51.678;6.074;2023-05-16T12:30:58;19.40;99.90
17619;DHT22;8928;51.678;6.074;2023-05-16T12:33:45;18.40;99.90
17619;DHT22;8928;51.678;6.074;2023-05-16T12:36:33;18.20;99.90
17619;DHT22;8928;51.678;6.074;2023-05-16T12:39:21;18.10;99.90
17619;DHT22;8928;51.678;6.074;2023-05-16T12:42:10;17.80;99.90
17619;DHT22;8928;51.678;6.074;2023-05-16T12:44:58;17.80;99.90
17619;DHT22;8928;51.678;6.074;2023-05-16T12:47:45;17.80;99.90
17619;DHT22;8928;51.678;6.074;2023-05-16T12:50:32;17.70;99.90
17619;DHT22;8928;51.678;6.074;2023-05-16T12:53:21;17.90;99.90
17619;DHT22;8928;51.678;6.074;2023-05-16T12:56:10;18.30;99.90
17619;DHT22;8928;51.678;6.074;2023-05-16T12:58:57;17.70;99.90
17619;DHT22;8928;51.678;6.074;2023-05-16T13:01:44;17.40;99.90
17619;DHT22;8928;51.678;6.074;2023-05-16T13:04:31;17.20;99.90
17619;DHT22;8928;51.678;6.074;2023-05-16T13:07:18;16.70;99.90
17619;DHT22;8928;51.678;6.074;2023-05-16T13:10:07;17.00;99.90
17619;DHT22;8928;51.678;6.074;2023-05-16T13:12:56;17.50;99.90
17619;DHT22;8928;51.678;6.074;2023-05-16T13:15:44;17.90;99.90
17619;DHT22;8928;51.678;6.074;2023-05-16T13:18:32;18.00;99.90
17619;DHT22;8928;51.678;6.074;2023-05-16T13:21:21;17.70;99.90
17619;DHT22;8928;51.678;6.074;2023-05-16T13:24:08;17.10;99.90
17619;DHT22;8928;51.678;6.074;2023-05-16T13:26:55;16.80;99.90
17619;DHT22;8928;51.678;6.074;2023-05-16T13:29:44;16.10;99.90
17619;DHT22;8928;51.678;6.074;2023-05-16T13:32:31;15.80;99.90
17619;DHT22;8928;51.678;6.074;2023-05-16T13:35:18;15.60;99.90
17619;DHT22;8928;51.678;6.074;2023-05-16T13:38:06;15.60;99.90
17619;DHT22;8928;51.678;6.074;2023-05-16T13:40:53;15.70;99.90
17619;DHT22;8928;51.678;6.074;2023-05-16T13:43:40;15.50;99.90
17619;DHT22;8928;51.678;6.074;2023-05-16T13:46:29;15.30;99.90
17619;DHT22;8928;51.678;6.074;2023-05-16T13:49:16;15.30;99.90
17619;DHT22;8928;51.678;6.074;2023-05-16T13:52:03;15.20;99.90
17619;DHT22;8928;51.678;6.074;2023-05-16T13:54:50;15.00;99.90
17619;DHT22;8928;51.678;6.074;2023-05-16T13:57:37;15.10;99.90
17619;DHT22;8928;51.678;6.074;2023-05-16T14:00:25;15.20;99.90
17619;DHT22;8928;51.678;6.074;2023-05-16T14:03:14;15.40;99.90
17619;DHT22;8928;51.678;6.074;2023-05-16T14:06:01;15.20;99.90
17619;DHT22;8928;51.678;6.074;2023-05-16T14:08:49;15.30;99.90
17619;DHT22;8928;51.678;6.074;2023-05-16T14:11:36;15.50;99.90
17619;DHT22;8928;51.678;6.074;2023-05-16T14:14:23;15.80;99.90
17619;DHT22;8928;51.678;6.074;2023-05-16T14:17:10;16.50;99.90
17619;DHT22;8928;51.678;6.074;2023-05-16T14:19:59;17.30;99.90
17619;DHT22;8928;51.678;6.074;2023-05-16T14:22:46;17.20;99.90
17619;DHT22;8928;51.678;6.074;2023-05-16T14:25:33;16.80;99.90
17619;DHT22;8928;51.678;6.074;2023-05-16T14:28:20;16.50;99.90
17619;DHT22;8928;51.678;6.074;2023-05-16T14:31:07;16.00;99.90
17619;DHT22;8928;51.678;6.074;2023-05-16T14:33:55;15.70;99.90
17619;DHT22;8928;51.678;6.074;2023-05-16T14:36:44;15.30;99.90
17619;DHT22;8928;51.678;6.074;2023-05-16T14:39:31;14.90;99.90
17619;DHT22;8928;51.678;6.074;2023-05-16T14:42:18;14.70;99.90
17619;DHT22;8928;51.678;6.074;2023-05-16T14:45:07;14.50;99.90
17619;DHT22;8928;51.678;6.074;2023-05-16T14:47:54;14.40;99.90
17619;DHT22;8928;51.678;6.074;2023-05-16T14:50:41;14.30;99.90
17619;DHT22;8928;51.678;6.074;2023-05-16T14:53:29;14.30;99.90
17619;DHT22;8928;51.678;6.074;2023-05-16T14:56:16;14.20;99.90
17619;DHT22;8928;51.678;6.074;2023-05-16T14:59:03;14.10;99.90
17619;DHT22;8928;51.678;6.074;2023-05-16T15:01:50;14.10;99.90
17619;DHT22;8928;51.678;6.074;2023-05-16T15:04:38;14.00;99.90
17619;DHT22;8928;51.678;6.074;2023-05-16T15:07:25;13.90;99.90
17619;DHT22;8928;51.678;6.074;2023-05-16T15:10:13;13.90;99.90
17619;DHT22;8928;51.678;6.074;2023-05-16T15:13:00;13.80;99.90
17619;DHT22;8928;51.678;6.074;2023-05-16T15:15:47;13.90;99.90
17619;DHT22;8928;51.678;6.074;2023-05-16T15:18:35;14.00;99.90
17619;DHT22;8928;51.678;6.074;2023-05-16T15:21:22;13.90;99.90
17619;DHT22;8928;51.678;6.074;2023-05-16T15:24:09;14.00;99.90
17619;DHT22;8928;51.678;6.074;2023-05-16T15:26:58;13.90;99.90
17619;DHT22;8928;51.678;6.074;2023-05-16T15:29:45;13.80;99.90
17619;DHT22;8928;51.678;6.074;2023-05-16T15:32:32;13.70;99.90
17619;DHT22;8928;51.678;6.074;2023-05-16T15:35:19;13.60;99.90
17619;DHT22;8928;51.678;6.074;2023-05-16T15:38:06;13.70;99.90
17619;DHT22;8928;51.678;6.074;2023-05-16T15:40:53;13.60;99.90
17619;DHT22;8928;51.678;6.074;2023-05-16T15:43:42;13.60;99.90
17619;DHT22;8928;51.678;6.074;2023-05-16T15:46:29;13.60;99.90
17619;DHT22;8928;51.678;6.074;2023-05-16T15:49:17;13.40;99.90
17619;DHT22;8928;51.678;6.074;2023-05-16T15:52:05;13.30;99.90
17619;DHT22;8928;51.678;6.074;2023-05-16T15:54:53;13.30;99.90
17619;DHT22;8928;51.678;6.074;2023-05-16T15:57:40;13.20;99.90
17619;DHT22;8928;51.678;6.074;2023-05-16T16:00:30;13.10;99.90
17619;DHT22;8928;51.678;6.074;2023-05-16T16:03:17;13.00;99.90
17619;DHT22;8928;51.678;6.074;2023-05-16T16:06:04;13.00;99.90
17619;DHT22;8928;51.678;6.074;2023-05-16T16:08:51;13.10;99.90
17619;DHT22;8928;51.678;6.074;2023-05-16T16:11:38;13.00;99.90
17619;DHT22;8928;51.678;6.074;2023-05-16T16:14:25;13.00;99.90
17619;DHT22;8928;51.678;6.074;2023-05-16T16:17:13;13.00;99.90
17619;DHT22;8928;51.678;6.074;2023-05-16T16:20:01;13.00;99.90
17619;DHT22;8928;51.678;6.074;2023-05-16T16:22:48;13.10;99.90
17619;DHT22;8928;51.678;6.074;2023-05-16T16:25:35;13.30;99.90
17619;DHT22;8928;51.678;6.074;2023-05-16T16:28:22;13.30;99.90
17619;DHT22;8928;51.678;6.074;2023-05-16T16:31:09;13.40;99.90
17619;DHT22;8928;51.678;6.074;2023-05-16T16:33:58;13.50;99.90
17619;DHT22;8928;51.678;6.074;2023-05-16T16:36:45;13.50;99.90
17619;DHT22;8928;51.678;6.074;2023-05-16T16:39:32;13.60;99.90
17619;DHT22;8928;51.678;6.074;2023-05-16T16:42:20;13.40;99.90
17619;DHT22;8928;51.678;6.074;2023-05-16T16:45:10;13.40;99.90
17619;DHT22;8928;51.678;6.074;2023-05-16T16:47:57;13.40;99.90
17619;DHT22;8928;51.678;6.074;2023-05-16T16:50:45;13.40;99.90
17619;DHT22;8928;51.678;6.074;2023-05-16T16:53:32;13.40;99.90
17619;DHT22;8928;51.678;6.074;2023-05-16T16:56:19;13.30;99.90
17619;DHT22;8928;51.678;6.074;2023-05-16T16:59:07;13.20;99.90
17619;DHT22;8928;51.678;6.074;2023-05-16T17:01:54;13.20;99.90
17619;DHT22;8928;51.678;6.074;2023-05-16T17:04:41;13.10;99.90
17619;DHT22;8928;51.678;6.074;2023-05-16T17:07:30;13.10;99.90
17619;DHT22;8928;51.678;6.074;2023-05-16T17:10:17;13.10;99.90
17619;DHT22;8928;51.678;6.074;2023-05-16T17:13:05;13.10;99.90
17619;DHT22;8928;51.678;6.074;2023-05-16T17:15:54;13.00;99.90
17619;DHT22;8928;51.678;6.074;2023-05-16T17:18:42;13.00;99.90
17619;DHT22;8928;51.678;6.074;2023-05-16T17:21:29;13.00;99.90
17619;DHT22;8928;51.678;6.074;2023-05-16T17:24:20;13.10;99.90
17619;DHT22;8928;51.678;6.074;2023-05-16T17:27:07;13.10;99.90
17619;DHT22;8928;51.678;6.074;2023-05-16T17:29:54;13.10;99.90
17619;DHT22;8928;51.678;6.074;2023-05-16T17:32:41;13.10;99.90
17619;DHT22;8928;51.678;6.074;2023-05-16T17:35:29;13.10;99.90
17619;DHT22;8928;51.678;6.074;2023-05-16T17:38:16;13.10;99.90
17619;DHT22;8928;51.678;6.074;2023-05-16T17:41:04;13.10;99.90
17619;DHT22;8928;51.678;6.074;2023-05-16T17:43:51;13.00;99.90
17619;DHT22;8928;51.678;6.074;2023-05-16T17:46:39;13.00;99.90
17619;DHT22;8928;51.678;6.074;2023-05-16T17:49:27;12.90;99.90
17619;DHT22;8928;51.678;6.074;2023-05-16T17:52:14;12.90;99.90
17619;DHT22;8928;51.678;6.074;2023-05-16T17:55:01;12.90;99.90
17619;DHT22;8928;51.678;6.074;2023-05-16T17:57:50;12.80;99.90
17619;DHT22;8928;51.678;6.074;2023-05-16T18:00:37;12.80;99.90
17619;DHT22;8928;51.678;6.074;2023-05-16T18:03:24;12.70;99.90
17619;DHT22;8928;51.678;6.074;2023-05-16T18:06:11;12.70;99.90